Time;durP1;ratioP1;P1;durP2;ratioP2;P2;SDS_P1;SDS_P2;PMS_P1;PMS_P2;Temp;Humidity;BMP_temperature;BMP_pressure;BME280_temperature;BME280_humidity;BME280_pressure;Samples;Min_cycle;Max_cycle;Signal;HPM_P1;HPM_P2
2023/04/08 00:01:02;;;;;;;17.17;11.20;;;2.60;99.90;;;;;;5086708;28;20089;-61
2023/04/08 00:03:27;;;;;;;17.77;10.80;;;2.50;99.90;;;;;;5072663;28;20037;-61
2023/04/08 00:05:53;;;;;;;16.73;10.88;;;2.50;99.90;;;;;;5075243;28;20051;-61
2023/04/08 00:08:19;;;;;;;21.58;13.13;;;2.50;99.90;;;;;;5073168;28;20039;-56
2023/04/08 00:10:44;;;;;;;22.27;12.27;;;2.50;99.90;;;;;;5074123;28;20041;-59
2023/04/08 00:13:10;;;;;;;17.77;11.70;;;2.50;99.90;;;;;;5071570;28;20036;-58
2023/04/08 00:15:36;;;;;;;20.35;12.55;;;2.50;99.90;;;;;;5080511;28;20052;-57
2023/04/08 00:18:02;;;;;;;20.00;11.88;;;2.50;99.90;;;;;;5067315;28;20040;-59
2023/04/08 00:20:28;;;;;;;22.30;12.43;;;2.50;99.90;;;;;;5067465;28;20127;-59
2023/04/08 00:22:53;;;;;;;18.95;11.38;;;2.50;99.90;;;;;;5063243;28;20132;-58
2023/04/08 00:25:19;;;;;;;18.98;12.02;;;2.40;99.90;;;;;;5067330;28;20043;-60
2023/04/08 00:27:45;;;;;;;17.10;11.07;;;2.50;99.90;;;;;;5066141;28;20033;-61
2023/04/08 00:30:10;;;;;;;20.02;11.70;;;2.50;99.90;;;;;;5066488;28;20047;-62
2023/04/08 00:32:36;;;;;;;19.27;11.10;;;2.40;99.90;;;;;;5066080;28;20045;-62
2023/04/08 00:35:03;;;;;;;23.70;12.73;;;2.40;99.90;;;;;;5062284;28;20036;-62
2023/04/08 00:37:30;;;;;;;24.00;11.52;;;2.30;99.90;;;;;;5063826;28;20055;-60
2023/04/08 00:39:56;;;;;;;19.52;11.00;;;2.30;99.90;;;;;;5066465;28;20044;-60
2023/04/08 00:42:21;;;;;;;19.10;11.63;;;2.30;99.90;;;;;;5065901;28;20049;-62
2023/04/08 00:44:47;;;;;;;22.33;12.68;;;2.20;99.90;;;;;;5066033;28;20423;-62
2023/04/08 00:47:13;;;;;;;21.13;12.27;;;2.20;99.90;;;;;;5064226;28;20040;-61
2023/04/08 00:49:39;;;;;;;21.63;13.15;;;2.20;99.90;;;;;;5066967;28;20380;-61
2023/04/08 00:52:05;;;;;;;20.80;12.60;;;2.20;99.90;;;;;;5065218;28;20487;-61
2023/04/08 00:54:30;;;;;;;24.90;12.73;;;2.20;99.90;;;;;;5066927;28;20055;-61
2023/04/08 00:57:00;;;;;;;22.33;12.73;;;2.20;99.90;;;;;;5064251;28;20052;-60
2023/04/08 00:59:26;;;;;;;23.55;13.30;;;2.20;99.90;;;;;;5064400;28;20067;-60
2023/04/08 01:02:05;;;;;;;26.17;13.23;;;2.20;99.90;;;;;;5064847;28;20044;-55
2023/04/08 01:04:57;;;;;;;19.95;12.18;;;2.20;99.90;;;;;;5063444;28;20040;-60
2023/04/08 01:07:31;;;;;;;26.95;12.73;;;2.20;99.90;;;;;;5061365;28;20049;-61
2023/04/08 01:10:04;;;;;;;21.42;11.73;;;2.20;99.90;;;;;;5066106;28;20043;-61
2023/04/08 01:12:34;;;;;;;19.05;11.40;;;2.20;99.90;;;;;;5062147;28;20033;-62
2023/04/08 01:15:05;;;;;;;28.27;12.07;;;2.10;99.90;;;;;;5064896;28;20033;-62
2023/04/08 01:17:32;;;;;;;24.15;12.77;;;2.10;99.90;;;;;;5057979;28;20458;-62
2023/04/08 01:20:00;;;;;;;21.40;11.63;;;2.00;99.90;;;;;;5065260;28;20040;-62
2023/04/08 01:22:31;;;;;;;19.30;11.35;;;2.00;99.90;;;;;;5062287;28;20048;-59
2023/04/08 01:25:05;;;;;;;22.38;11.35;;;2.00;99.90;;;;;;5065426;28;20415;-63
2023/04/08 01:27:31;;;;;;;25.38;12.35;;;2.00;99.90;;;;;;5065390;28;20079;-62
2023/04/08 01:29:58;;;;;;;17.30;11.05;;;1.90;99.90;;;;;;5064276;28;20045;-62
2023/04/08 01:32:26;;;;;;;16.65;10.48;;;1.90;99.90;;;;;;5060868;28;20661;-62
2023/04/08 01:34:53;;;;;;;15.82;10.18;;;1.80;99.90;;;;;;5065209;28;20037;-61
2023/04/08 01:37:19;;;;;;;20.88;12.60;;;1.90;99.90;;;;;;5061210;28;20040;-61
2023/04/08 01:39:47;;;;;;;20.65;12.93;;;1.80;99.90;;;;;;5062885;28;20151;-61
2023/04/08 01:42:14;;;;;;;21.15;12.38;;;1.90;99.90;;;;;;5063631;28;20127;-62
2023/04/08 01:44:42;;;;;;;20.50;12.43;;;1.90;99.90;;;;;;5063061;28;20362;-62
2023/04/08 01:47:11;;;;;;;22.50;13.25;;;1.90;99.90;;;;;;5062830;28;20122;-61
2023/04/08 01:49:37;;;;;;;21.55;12.60;;;1.90;99.90;;;;;;5063060;28;20123;-60
2023/04/08 01:52:05;;;;;;;19.92;12.07;;;1.90;99.90;;;;;;5063998;28;20048;-60
2023/04/08 01:54:31;;;;;;;22.63;12.57;;;1.90;99.90;;;;;;5062879;28;20041;-57
2023/04/08 01:56:58;;;;;;;24.73;11.90;;;1.90;99.90;;;;;;5063706;28;20047;-61
2023/04/08 01:59:28;;;;;;;19.30;11.63;;;1.90;99.90;;;;;;5063014;28;20037;-62
2023/04/08 02:01:55;;;;;;;23.85;12.90;;;1.90;99.90;;;;;;5061532;28;20039;-62
2023/04/08 02:04:21;;;;;;;25.92;12.18;;;1.90;99.90;;;;;;5060926;28;20120;-62
2023/04/08 02:06:47;;;;;;;23.15;12.27;;;2.00;99.90;;;;;;5063262;28;20120;-62
2023/04/08 02:09:12;;;;;;;19.40;11.52;;;1.90;99.90;;;;;;5061004;28;20129;-57
2023/04/08 02:11:38;;;;;;;20.92;11.38;;;2.00;99.90;;;;;;5064653;28;20044;-61
2023/04/08 02:14:04;;;;;;;20.25;10.55;;;2.00;99.90;;;;;;5058892;28;20044;-62
2023/04/08 02:17:14;;;;;;;21.35;12.45;;;2.10;99.90;;;;;;5062669;28;20048;-60
2023/04/08 02:19:46;;;;;;;24.08;11.85;;;2.10;99.90;;;;;;4982078;28;20050;-57
2023/04/08 02:22:20;;;;;;;24.33;12.80;;;2.20;99.90;;;;;;4980595;28;20731;-62
2023/04/08 02:24:46;;;;;;;20.98;12.15;;;2.30;99.90;;;;;;5027289;28;20835;-61
2023/04/08 02:27:12;;;;;;;23.05;12.43;;;2.30;99.90;;;;;;5061124;28;20119;-61
2023/04/08 02:29:40;;;;;;;20.85;12.90;;;2.40;99.90;;;;;;5065536;28;20148;-62
2023/04/08 02:32:07;;;;;;;26.27;13.15;;;2.40;99.90;;;;;;5062366;28;20123;-56
2023/04/08 02:34:34;;;;;;;24.52;13.77;;;2.40;99.90;;;;;;5061432;28;20678;-56
2023/04/08 02:37:01;;;;;;;21.25;11.88;;;2.40;99.90;;;;;;5059669;28;20062;-58
2023/04/08 02:39:31;;;;;;;21.58;12.88;;;2.40;99.90;;;;;;5060911;28;20044;-60
2023/04/08 02:41:57;;;;;;;24.02;12.85;;;2.40;99.90;;;;;;5063484;28;20040;-60
2023/04/08 02:44:23;;;;;;;23.85;13.48;;;2.40;99.90;;;;;;5058023;28;20041;-60
2023/04/08 02:46:49;;;;;;;26.08;13.07;;;2.40;99.90;;;;;;5062772;28;20044;-57
2023/04/08 02:49:14;;;;;;;24.05;13.85;;;2.50;99.90;;;;;;5060757;28;20082;-62
2023/04/08 02:51:40;;;;;;;18.40;12.13;;;2.50;99.90;;;;;;5063028;28;20039;-62
2023/04/08 02:54:05;;;;;;;21.15;12.65;;;2.60;99.90;;;;;;5060499;28;20037;-60
2023/04/08 02:56:31;;;;;;;19.58;11.82;;;2.60;99.90;;;;;;5062153;28;20044;-61
2023/04/08 02:58:57;;;;;;;19.50;12.43;;;2.70;99.90;;;;;;5064137;28;20042;-62
2023/04/08 03:01:22;;;;;;;21.60;12.85;;;2.70;99.90;;;;;;5063302;28;20036;-60
2023/04/08 03:03:48;;;;;;;19.25;12.50;;;2.70;99.90;;;;;;5059489;28;20036;-62
2023/04/08 03:06:13;;;;;;;20.05;11.52;;;2.70;99.90;;;;;;5062266;28;20111;-62
2023/04/08 03:08:39;;;;;;;19.73;12.05;;;2.70;99.90;;;;;;5059260;28;20037;-61
2023/04/08 03:11:05;;;;;;;19.38;12.18;;;2.70;99.90;;;;;;5064249;28;20402;-62
2023/04/08 03:13:30;;;;;;;17.70;11.10;;;2.70;99.90;;;;;;5056379;28;20033;-61
2023/04/08 03:15:56;;;;;;;19.60;11.90;;;2.70;99.90;;;;;;5062919;28;20056;-60
2023/04/08 03:18:22;;;;;;;20.88;12.00;;;2.80;99.90;;;;;;5059700;28;20123;-59
2023/04/08 03:20:47;;;;;;;24.67;12.98;;;2.80;99.90;;;;;;5063830;28;20120;-60
2023/04/08 03:23:13;;;;;;;25.02;12.18;;;2.90;99.90;;;;;;5059333;28;20083;-60
2023/04/08 03:25:39;;;;;;;21.30;12.82;;;2.80;99.90;;;;;;5063844;28;20045;-60
2023/04/08 03:28:05;;;;;;;22.73;12.98;;;2.80;99.90;;;;;;5062974;28;20037;-58
2023/04/08 03:30:30;;;;;;;20.35;11.55;;;2.90;99.90;;;;;;5063954;28;20044;-57
2023/04/08 03:32:56;;;;;;;21.63;12.85;;;2.80;99.90;;;;;;5058129;28;20037;-60
2023/04/08 03:35:22;;;;;;;19.80;11.15;;;2.80;99.90;;;;;;5063724;28;20782;-61
2023/04/08 03:37:47;;;;;;;23.27;13.32;;;2.90;99.90;;;;;;5058653;28;20041;-61
2023/04/08 03:40:13;;;;;;;22.90;12.93;;;2.90;99.90;;;;;;5064705;28;20066;-58
2023/04/08 03:42:38;;;;;;;18.63;11.60;;;2.90;99.90;;;;;;5059519;28;20044;-61
2023/04/08 03:45:05;;;;;;;19.77;12.35;;;2.90;99.90;;;;;;5063490;28;20047;-61
2023/04/08 03:47:30;;;;;;;22.85;12.75;;;2.90;99.90;;;;;;5058838;28;20092;-60
2023/04/08 03:49:56;;;;;;;23.75;12.88;;;2.90;99.90;;;;;;5064056;28;20036;-60
2023/04/08 03:52:22;;;;;;;19.33;12.07;;;2.90;99.90;;;;;;5060177;28;20052;-63
2023/04/08 03:54:48;;;;;;;22.73;13.10;;;2.90;99.90;;;;;;5067185;28;20045;-60
2023/04/08 03:57:14;;;;;;;18.67;11.50;;;3.00;99.90;;;;;;5066079;28;20564;-61
2023/04/08 03:59:40;;;;;;;19.52;11.55;;;3.00;99.90;;;;;;5065777;28;20488;-60
2023/04/08 04:02:06;;;;;;;24.38;12.40;;;3.00;99.90;;;;;;5065365;28;20051;-62
2023/04/08 04:04:32;;;;;;;21.52;13.25;;;3.00;99.90;;;;;;5068173;28;20044;-60
2023/04/08 04:06:58;;;;;;;23.63;13.73;;;3.00;99.90;;;;;;5066636;28;20075;-61
2023/04/08 04:09:24;;;;;;;20.30;12.43;;;3.00;99.90;;;;;;5062216;28;20083;-60
2023/04/08 04:11:49;;;;;;;21.70;12.77;;;3.00;99.90;;;;;;5067019;28;20453;-57
2023/04/08 04:14:15;;;;;;;22.40;12.90;;;3.00;99.90;;;;;;5062619;28;20029;-61
2023/04/08 04:16:41;;;;;;;23.55;14.13;;;3.00;99.90;;;;;;5066906;28;20044;-63
2023/04/08 04:19:06;;;;;;;21.08;12.98;;;3.00;99.90;;;;;;5061854;28;20713;-62
2023/04/08 04:21:32;;;;;;;24.95;12.63;;;3.00;99.90;;;;;;5066820;28;20554;-61
2023/04/08 04:23:57;;;;;;;24.55;12.85;;;3.00;99.90;;;;;;5062525;28;20046;-61
2023/04/08 04:26:23;;;;;;;24.40;13.55;;;3.00;99.90;;;;;;5066544;28;20052;-62
2023/04/08 04:28:49;;;;;;;19.95;12.60;;;3.00;99.90;;;;;;5066412;28;20661;-61
2023/04/08 04:31:27;;;;;;;21.48;13.25;;;3.00;99.90;;;;;;5065724;28;20036;-63
2023/04/08 04:33:53;;;;;;;25.58;14.00;;;3.00;99.90;;;;;;5061872;28;20565;-61
2023/04/08 04:36:18;;;;;;;20.33;12.40;;;3.00;99.90;;;;;;5066442;28;20063;-61
2023/04/08 04:38:44;;;;;;;21.00;13.35;;;3.10;99.90;;;;;;5062372;28;20464;-60
2023/04/08 04:41:10;;;;;;;17.58;11.52;;;3.10;99.90;;;;;;5067345;28;20044;-62
2023/04/08 04:43:36;;;;;;;29.75;13.65;;;3.10;99.90;;;;;;5065580;28;20808;-61
2023/04/08 04:46:05;;;;;;;21.63;13.07;;;3.10;99.90;;;;;;5065000;28;20036;-63
2023/04/08 04:48:32;;;;;;;25.65;14.07;;;3.20;99.90;;;;;;5060220;28;20040;-62
2023/04/08 04:51:00;;;;;;;23.75;13.40;;;3.20;99.90;;;;;;5065897;28;20554;-58
2023/04/08 04:53:26;;;;;;;18.85;12.32;;;3.20;99.90;;;;;;5062403;28;20067;-60
2023/04/08 04:55:51;;;;;;;27.88;13.93;;;3.20;99.90;;;;;;5065587;28;20040;-62
2023/04/08 04:58:18;;;;;;;24.88;12.55;;;3.30;99.90;;;;;;5064588;28;20033;-60
2023/04/08 05:00:43;;;;;;;23.67;12.93;;;3.30;99.90;;;;;;5064796;28;20113;-60
2023/04/08 05:03:09;;;;;;;19.42;12.50;;;3.30;99.90;;;;;;5061757;28;20036;-59
2023/04/08 05:05:35;;;;;;;18.55;12.55;;;3.30;99.90;;;;;;5065398;28;20037;-60
2023/04/08 05:08:01;;;;;;;20.10;12.80;;;3.30;99.90;;;;;;5061428;28;20052;-58
2023/04/08 05:10:26;;;;;;;23.42;14.23;;;3.40;99.90;;;;;;5065947;28;20032;-58
2023/04/08 05:12:52;;;;;;;21.27;12.13;;;3.40;99.90;;;;;;5061302;28;20044;-58
2023/04/08 05:15:17;;;;;;;22.63;13.15;;;3.40;99.90;;;;;;5065250;28;20769;-57
2023/04/08 05:17:43;;;;;;;27.08;13.27;;;3.40;99.90;;;;;;5061628;28;20036;-59
2023/04/08 05:20:09;;;;;;;26.38;15.18;;;3.40;99.90;;;;;;5066004;28;20483;-58
2023/04/08 05:22:34;;;;;;;22.58;13.63;;;3.50;99.90;;;;;;5056892;28;20041;-57
2023/04/08 05:25:00;;;;;;;24.27;13.27;;;3.50;99.90;;;;;;5063990;28;20079;-57
2023/04/08 05:27:26;;;;;;;22.52;13.13;;;3.60;99.90;;;;;;5064539;28;20594;-62
2023/04/08 05:29:51;;;;;;;24.88;13.73;;;3.60;99.90;;;;;;5065560;28;20036;-60
2023/04/08 05:32:17;;;;;;;23.88;13.02;;;3.70;99.90;;;;;;5061660;28;20585;-61
2023/04/08 05:34:43;;;;;;;20.02;12.32;;;3.70;99.90;;;;;;5064651;28;20044;-57
2023/04/08 05:37:08;;;;;;;19.83;12.00;;;3.80;99.90;;;;;;5063657;28;20040;-60
2023/04/08 05:39:34;;;;;;;20.77;13.38;;;3.80;99.90;;;;;;5063048;28;20044;-59
2023/04/08 05:42:00;;;;;;;20.67;12.40;;;3.80;99.90;;;;;;5064300;28;20039;-59
2023/04/08 05:44:25;;;;;;;22.88;11.95;;;3.90;99.90;;;;;;5061312;28;20233;-58
2023/04/08 05:46:51;;;;;;;19.75;12.05;;;3.90;99.90;;;;;;5063117;28;20037;-61
2023/04/08 05:49:17;;;;;;;19.42;12.48;;;4.00;99.90;;;;;;5066393;28;20059;-60
2023/04/08 05:51:43;;;;;;;21.60;12.60;;;4.10;99.90;;;;;;5065044;28;20197;-62
2023/04/08 05:54:08;;;;;;;18.15;11.05;;;4.20;99.90;;;;;;5062103;28;20041;-58
2023/04/08 05:56:34;;;;;;;17.55;11.18;;;4.20;99.90;;;;;;5064077;28;20059;-59
2023/04/08 05:59:00;;;;;;;19.42;12.10;;;4.30;99.90;;;;;;5061619;28;20744;-59
2023/04/08 06:01:26;;;;;;;22.52;12.98;;;4.30;99.90;;;;;;5063039;28;20040;-62
2023/04/08 06:03:51;;;;;;;23.60;12.52;;;4.30;99.90;;;;;;5062538;28;20071;-60
2023/04/08 06:06:17;;;;;;;21.23;12.80;;;4.30;99.90;;;;;;5062564;28;20163;-63
2023/04/08 06:08:43;;;;;;;25.08;14.05;;;4.30;99.90;;;;;;5062125;28;20475;-58
2023/04/08 06:11:09;;;;;;;23.15;13.35;;;4.20;99.90;;;;;;5065009;28;20086;-59
2023/04/08 06:13:34;;;;;;;19.08;13.02;;;4.30;99.90;;;;;;5061580;28;20041;-58
2023/04/08 06:16:14;;;;;;;22.25;12.07;;;4.30;99.90;;;;;;5063872;28;20059;-60
2023/04/08 06:18:40;;;;;;;18.48;11.88;;;4.30;99.90;;;;;;5060921;28;20562;-61
2023/04/08 06:21:06;;;;;;;21.10;12.85;;;4.40;99.90;;;;;;5064050;28;20043;-62
2023/04/08 06:23:31;;;;;;;21.25;12.95;;;4.40;99.90;;;;;;5060064;28;20040;-59
2023/04/08 06:25:57;;;;;;;24.45;12.10;;;4.40;99.90;;;;;;5063363;28;20040;-63
2023/04/08 06:28:23;;;;;;;20.38;12.52;;;4.40;99.90;;;;;;5064319;28;20060;-61
2023/04/08 06:30:49;;;;;;;23.40;12.23;;;4.50;99.90;;;;;;5062065;28;20032;-59
2023/04/08 06:33:14;;;;;;;21.88;11.90;;;4.60;99.90;;;;;;5059874;28;20055;-61
2023/04/08 06:35:40;;;;;;;30.42;13.25;;;4.60;99.90;;;;;;5063246;28;20403;-60
2023/04/08 06:38:06;;;;;;;20.92;12.13;;;4.60;99.90;;;;;;5059922;28;20055;-61
2023/04/08 06:40:31;;;;;;;19.92;10.95;;;4.70;99.90;;;;;;5065484;28;20045;-64
2023/04/08 06:42:57;;;;;;;21.17;11.60;;;4.70;99.90;;;;;;5058900;28;20033;-55
2023/04/08 06:45:23;;;;;;;18.63;11.65;;;4.80;99.90;;;;;;5063425;28;20032;-61
2023/04/08 06:47:48;;;;;;;18.02;11.02;;;4.80;99.90;;;;;;5059039;28;20072;-56
2023/04/08 06:50:14;;;;;;;25.65;13.25;;;4.80;99.90;;;;;;5064284;28;20118;-60
2023/04/08 06:52:40;;;;;;;22.08;12.30;;;4.80;99.90;;;;;;5061139;28;20047;-61
2023/04/08 06:55:06;;;;;;;23.65;12.15;;;4.90;99.90;;;;;;5064206;28;20059;-59
2023/04/08 06:57:31;;;;;;;31.83;13.05;;;5.00;99.90;;;;;;5063709;28;20052;-62
2023/04/08 06:59:59;;;;;;;27.08;14.70;;;5.00;99.90;;;;;;5064688;28;20801;-60
2023/04/08 07:02:25;;;;;;;25.05;14.85;;;5.00;99.90;;;;;;5061575;28;20052;-60
2023/04/08 07:04:50;;;;;;;23.73;12.90;;;5.10;99.90;;;;;;5061943;28;20044;-59
2023/04/08 07:07:16;;;;;;;21.73;13.75;;;5.20;99.90;;;;;;5059678;28;20028;-55
2023/04/08 07:09:44;;;;;;;26.65;13.50;;;5.20;99.90;;;;;;5062190;28;20123;-60
2023/04/08 07:12:13;;;;;;;19.17;13.20;;;5.20;99.90;;;;;;5060318;28;20036;-62
2023/04/08 07:14:39;;;;;;;26.63;14.52;;;5.20;99.90;;;;;;5063194;28;20065;-60
2023/04/08 07:17:04;;;;;;;26.50;15.82;;;5.30;99.90;;;;;;5061883;28;20125;-60
2023/04/08 07:19:31;;;;;;;26.77;16.00;;;5.20;99.90;;;;;;5060754;28;20043;-54
2023/04/08 07:21:56;;;;;;;22.25;14.45;;;5.30;99.90;;;;;;5063996;28;20461;-56
2023/04/08 07:24:22;;;;;;;22.60;14.57;;;5.30;99.90;;;;;;5060219;28;20048;-59
2023/04/08 07:26:48;;;;;;;20.95;14.10;;;5.40;99.90;;;;;;5062454;28;20047;-62
2023/04/08 07:29:14;;;;;;;21.58;14.38;;;5.40;99.90;;;;;;5067375;28;20039;-58
2023/04/08 07:31:42;;;;;;;24.15;15.07;;;5.40;99.90;;;;;;5066033;28;20044;-61
2023/04/08 07:34:07;;;;;;;23.55;14.77;;;5.40;99.90;;;;;;5069149;28;20039;-61
2023/04/08 07:36:33;;;;;;;21.23;13.27;;;5.40;99.90;;;;;;5066598;28;20040;-62
2023/04/08 07:38:59;;;;;;;23.67;14.77;;;5.30;99.90;;;;;;5061730;28;20032;-61
2023/04/08 07:41:25;;;;;;;21.02;13.68;;;5.40;99.90;;;;;;5062633;28;20123;-58
2023/04/08 07:43:50;;;;;;;23.00;13.60;;;5.40;99.90;;;;;;5066501;28;20393;-58
2023/04/08 07:46:16;;;;;;;23.58;13.98;;;5.50;99.90;;;;;;5066507;28;20047;-61
2023/04/08 07:48:41;;;;;;;;;;;5.50;99.90;;;;;;5063965;28;20113;-63
2023/04/08 07:51:08;;;;;;;19.13;13.05;;;5.50;99.90;;;;;;5067367;28;19924;-60
2023/04/08 07:53:34;;;;;;;19.67;12.68;;;5.50;99.90;;;;;;5061964;28;20420;-58
2023/04/08 07:56:02;;;;;;;21.13;13.68;;;5.60;99.90;;;;;;5066304;28;20102;-62
2023/04/08 07:58:28;;;;;;;21.15;13.07;;;5.60;99.90;;;;;;5064535;28;20049;-60
2023/04/08 08:00:56;;;;;;;21.45;13.75;;;5.60;99.90;;;;;;5066469;28;20150;-60
2023/04/08 08:03:21;;;;;;;24.10;14.90;;;5.60;99.90;;;;;;5062346;28;20067;-62
2023/04/08 08:05:47;;;;;;;20.63;13.23;;;5.60;99.90;;;;;;5066059;28;20514;-57
2023/04/08 08:08:13;;;;;;;;;;;5.60;99.90;;;;;;5063587;28;20032;-59
2023/04/08 08:10:39;;;;;;;26.83;12.50;;;5.60;99.90;;;;;;5066607;28;20556;-59
2023/04/08 08:13:05;;;;;;;22.58;12.30;;;5.50;99.90;;;;;;5065121;28;20047;-58
2023/04/08 08:15:31;;;;;;;21.90;12.32;;;5.50;99.90;;;;;;5067145;28;20047;-58
2023/04/08 08:17:57;;;;;;;20.33;13.38;;;5.60;99.90;;;;;;5061605;28;20032;-56
2023/04/08 08:20:23;;;;;;;19.17;10.98;;;5.70;99.90;;;;;;5066809;28;20127;-61
2023/04/08 08:22:48;;;;;;;16.20;9.88;;;5.70;99.90;;;;;;5061796;28;20045;-60
2023/04/08 08:25:14;;;;;;;17.70;10.07;;;5.70;99.90;;;;;;5065723;28;20025;-61
2023/04/08 08:27:41;;;;;;;;;;;5.70;99.90;;;;;;5066202;28;20149;-60
2023/04/08 08:30:08;;;;;;;19.08;9.85;;;5.70;99.90;;;;;;5066064;28;20624;-61
2023/04/08 08:32:34;;;;;;;15.38;8.68;;;5.60;99.90;;;;;;5058603;28;20070;-60
2023/04/08 08:35:00;;;;;;;12.40;7.60;;;5.50;99.90;;;;;;5067422;28;20127;-61
2023/04/08 08:37:26;;;;;;;9.93;6.38;;;5.40;99.90;;;;;;5066388;28;20658;-61
2023/04/08 08:39:51;;;;;;;11.88;6.93;;;5.50;99.90;;;;;;5064741;28;20123;-55
2023/04/08 08:42:23;;;;;;;11.55;7.10;;;5.50;99.90;;;;;;5070879;28;20158;-62
2023/04/08 08:44:49;;;;;;;12.30;6.85;;;5.40;99.90;;;;;;5074787;28;20060;-62
2023/04/08 08:47:16;;;;;;;14.70;7.85;;;5.50;99.90;;;;;;5064951;28;20730;-61
2023/04/08 08:49:42;;;;;;;13.57;6.90;;;5.60;99.90;;;;;;5070135;28;20044;-56
2023/04/08 08:52:08;;;;;;;11.13;6.45;;;5.60;99.90;;;;;;5071315;28;20067;-59
2023/04/08 08:54:34;;;;;;;15.50;7.60;;;5.60;99.90;;;;;;5069431;28;20476;-60
2023/04/08 08:57:00;;;;;;;14.23;6.60;;;5.60;99.90;;;;;;5070976;28;20044;-61
2023/04/08 08:59:25;;;;;;;18.65;7.15;;;5.70;99.90;;;;;;5066836;28;20119;-59
2023/04/08 09:01:51;;;;;;;;;;;5.70;99.90;;;;;;5067470;28;20047;-61
2023/04/08 09:04:19;;;;;;;17.52;8.40;;;5.70;99.90;;;;;;5073568;28;19962;-60
2023/04/08 09:06:46;;;;;;;18.85;8.35;;;5.70;99.90;;;;;;5068390;28;20079;-62
2023/04/08 09:09:12;;;;;;;17.45;8.52;;;5.80;99.90;;;;;;5074939;28;20040;-59
2023/04/08 09:11:43;;;;;;;16.75;8.68;;;5.90;99.90;;;;;;5073120;28;20044;-62
2023/04/08 09:14:23;;;;;;;17.70;9.07;;;5.90;99.90;;;;;;5069859;28;20032;-61
2023/04/08 09:16:50;;;;;;;17.63;9.30;;;5.90;99.90;;;;;;5066255;28;20511;-62
2023/04/08 09:19:15;;;;;;;18.70;9.02;;;6.00;99.90;;;;;;5062773;28;20536;-60
2023/04/08 09:21:41;;;;;;;17.38;8.98;;;6.20;99.90;;;;;;5065880;28;20101;-62
2023/04/08 09:24:07;;;;;;;;;;;6.30;99.90;;;;;;5060763;28;20032;-62
2023/04/08 09:26:34;;;;;;;16.38;8.73;;;6.30;99.90;;;;;;5062113;28;19925;-62
2023/04/08 09:29:06;;;;;;;19.10;9.65;;;6.40;99.90;;;;;;5067067;28;20040;-63
2023/04/08 09:31:39;;;;;;;20.95;9.80;;;6.40;99.90;;;;;;5064601;28;20036;-62
2023/04/08 09:34:10;;;;;;;23.92;10.95;;;6.40;99.90;;;;;;5064334;28;20040;-61
2023/04/08 09:36:36;;;;;;;18.73;9.93;;;6.40;99.90;;;;;;5064576;28;20053;-61
2023/04/08 09:39:02;;;;;;;17.13;9.63;;;6.50;99.90;;;;;;5062773;28;20036;-62
2023/04/08 09:41:29;;;;;;;21.15;10.10;;;6.50;99.90;;;;;;5065989;28;20080;-64
2023/04/08 09:43:57;;;;;;;18.85;10.77;;;6.60;99.90;;;;;;5062312;28;20113;-61
2023/04/08 09:46:46;;;;;;;20.48;9.85;;;6.60;99.90;;;;;;5066305;28;20658;-63
2023/04/08 09:49:17;;;;;;;19.65;9.15;;;6.70;99.90;;;;;;5064484;28;20476;-61
2023/04/08 09:51:52;;;;;;;19.20;10.20;;;6.80;99.90;;;;;;5064690;28;20033;-61
2023/04/08 09:54:22;;;;;;;19.85;11.23;;;7.00;99.90;;;;;;5069491;28;20112;-58
2023/04/08 09:56:59;;;;;;;19.48;10.38;;;7.00;99.90;;;;;;5066456;28;20128;-60
2023/04/08 09:59:29;;;;;;;19.98;10.63;;;7.10;99.90;;;;;;5063770;28;20290;-63
2023/04/08 10:01:57;;;;;;;21.52;10.65;;;7.10;99.90;;;;;;5062123;28;20040;-59
2023/04/08 10:04:26;;;;;;;22.38;11.18;;;7.10;99.90;;;;;;5065100;28;20036;-57
2023/04/08 10:06:58;;;;;;;29.20;11.38;;;7.00;99.90;;;;;;5063104;28;20106;-60
2023/04/08 10:09:26;;;;;;;24.27;11.93;;;7.00;99.90;;;;;;5061552;28;20620;-61
2023/04/08 10:11:52;;;;;;;21.50;13.27;;;7.00;99.90;;;;;;5063932;28;20105;-60
2023/04/08 10:14:20;;;;;;;22.15;12.98;;;6.90;99.90;;;;;;5061260;28;20483;-57
2023/04/08 10:16:46;;;;;;;21.73;12.73;;;6.90;99.90;;;;;;5062719;28;20052;-61
2023/04/08 10:19:40;;;;;;;22.27;13.05;;;6.90;99.90;;;;;;5065119;28;20036;-59
2023/04/08 10:22:28;;;;;;;22.90;12.73;;;7.00;99.90;;;;;;5062424;28;20036;-59
2023/04/08 10:25:15;;;;;;;22.80;14.68;;;7.00;99.90;;;;;;5065193;28;20036;-62
2023/04/08 10:27:42;;;;;;;21.05;12.98;;;7.00;99.90;;;;;;5061924;28;20154;-59
2023/04/08 10:30:26;;;;;;;23.30;13.52;;;7.10;99.90;;;;;;5063925;28;20032;-60
2023/04/08 10:32:56;;;;;;;18.23;12.30;;;7.10;99.90;;;;;;5063705;28;21363;-60
2023/04/08 10:35:29;;;;;;;23.23;14.45;;;7.10;99.90;;;;;;5064117;28;20846;-61
2023/04/08 10:37:56;;;;;;;24.45;12.85;;;7.00;99.90;;;;;;5063780;28;20056;-59
2023/04/08 10:40:22;;;;;;;21.15;13.07;;;7.00;99.90;;;;;;5070325;28;20045;-54
2023/04/08 10:42:56;;;;;;;19.92;11.75;;;7.10;99.90;;;;;;5063263;28;20103;-53
2023/04/08 10:45:22;;;;;;;21.65;13.27;;;7.30;99.90;;;;;;5065645;28;20045;-59
2023/04/08 10:47:48;;;;;;;22.63;12.85;;;7.50;99.90;;;;;;5063942;28;20060;-59
2023/04/08 10:50:14;;;;;;;20.13;12.25;;;7.60;99.90;;;;;;5064046;28;20032;-60
2023/04/08 10:52:53;;;;;;;20.40;12.25;;;7.80;99.90;;;;;;5064215;28;20036;-59
2023/04/08 10:55:26;;;;;;;21.17;12.85;;;7.80;99.90;;;;;;5063327;28;20036;-61
2023/04/08 10:57:52;;;;;;;24.50;13.73;;;7.60;99.90;;;;;;5061723;28;20658;-60
2023/04/08 11:00:19;;;;;;;23.45;12.07;;;7.30;99.90;;;;;;5064797;28;20060;-62
2023/04/08 11:02:45;;;;;;;20.60;12.32;;;7.30;99.90;;;;;;5061890;28;20313;-60
2023/04/08 11:05:10;;;;;;;22.25;13.13;;;7.30;99.90;;;;;;5063331;28;20595;-57
2023/04/08 11:07:40;;;;;;;20.77;12.48;;;7.40;99.90;;;;;;5062080;28;20862;-61
2023/04/08 11:10:07;;;;;;;18.88;11.07;;;7.50;99.90;;;;;;5065730;28;20044;-58
2023/04/08 11:12:34;;;;;;;17.70;11.95;;;7.60;99.90;;;;;;5062589;28;20072;-58
2023/04/08 11:15:01;;;;;;;19.23;11.93;;;7.70;99.90;;;;;;5064750;28;20037;-60
2023/04/08 11:17:27;;;;;;;21.23;11.85;;;7.70;99.90;;;;;;5058070;28;20080;-59
2023/04/08 11:19:53;;;;;;;;;;;7.80;99.90;;;;;;5065654;28;20072;-60
2023/04/08 11:22:19;;;;;;;17.73;11.98;;;8.00;99.90;;;;;;5062222;28;20016;-62
2023/04/08 11:24:46;;;;;;;19.52;11.38;;;8.00;99.90;;;;;;5065380;28;20056;-59
2023/04/08 11:27:11;;;;;;;19.15;12.02;;;7.90;99.90;;;;;;5063604;28;20103;-60
2023/04/08 11:29:37;;;;;;;;;;;7.80;99.90;;;;;;5065205;28;20048;-61
2023/04/08 11:32:03;;;;;;;19.23;10.68;;;7.90;99.90;;;;;;5060134;28;20022;-62
2023/04/08 11:34:28;;;;;;;;;;;7.90;99.90;;;;;;5065115;28;20098;-61
2023/04/08 11:36:57;;;;;;;20.13;10.80;;;8.00;99.90;;;;;;5061508;28;19916;-60
2023/04/08 11:39:23;;;;;;;18.05;11.63;;;8.20;99.90;;;;;;5064471;28;20044;-59
2023/04/08 11:41:49;;;;;;;18.33;11.40;;;8.10;99.90;;;;;;5063164;28;20040;-61
2023/04/08 11:44:14;;;;;;;;;;;8.40;99.90;;;;;;5064361;28;20090;-60
2023/04/08 11:46:50;;;;;;;20.05;11.30;;;8.30;99.90;;;;;;5062821;28;19924;-61
2023/04/08 11:49:16;;;;;;;15.80;9.32;;;8.30;99.90;;;;;;5063092;28;20048;-58
2023/04/08 11:51:56;;;;;;;15.50;10.52;;;8.30;99.90;;;;;;5066240;28;20051;-55
2023/04/08 11:54:29;;;;;;;13.50;8.85;;;8.40;99.90;;;;;;5065071;28;20045;-59
2023/04/08 11:56:57;;;;;;;15.13;9.18;;;8.50;99.90;;;;;;5067885;28;20036;-58
2023/04/08 11:59:23;;;;;;;11.68;8.40;;;8.50;99.90;;;;;;5071511;28;20062;-62
2023/04/08 12:01:50;;;;;;;17.92;10.13;;;8.60;99.90;;;;;;5068949;28;20136;-56
2023/04/08 12:04:15;;;;;;;14.38;9.77;;;8.50;99.90;;;;;;5075930;28;20047;-59
2023/04/08 12:06:42;;;;;;;;;;;8.40;99.90;;;;;;5071225;28;20040;-57
2023/04/08 12:09:08;;;;;;;14.57;9.65;;;8.60;99.90;;;;;;5074351;28;19927;-59
2023/04/08 12:11:33;;;;;;;;;;;8.60;99.90;;;;;;5069472;28;20040;-60
2023/04/08 12:13:59;;;;;;;17.25;9.65;;;8.60;99.90;;;;;;5074115;28;19919;-61
2023/04/08 12:16:25;;;;;;;;;;;8.40;99.90;;;;;;5076392;28;20067;-61
2023/04/08 12:18:50;;;;;;;15.23;10.02;;;8.30;99.90;;;;;;5074971;28;19962;-62
2023/04/08 12:21:16;;;;;;;14.88;9.50;;;8.30;99.90;;;;;;5078910;28;20048;-60
2023/04/08 12:23:41;;;;;;;;;;;8.20;99.90;;;;;;5074699;28;20028;-62
2023/04/08 12:26:07;;;;;;;15.45;8.98;;;8.20;99.90;;;;;;5077104;28;19920;-63
2023/04/08 12:28:34;;;;;;;15.10;8.95;;;8.20;99.90;;;;;;5073085;28;20066;-60
2023/04/08 12:30:59;;;;;;;14.27;8.73;;;8.20;99.90;;;;;;5074641;28;20098;-61
2023/04/08 12:33:25;;;;;;;;;;;8.20;99.90;;;;;;5074996;28;20052;-59
2023/04/08 12:35:51;;;;;;;12.98;8.80;;;8.10;99.90;;;;;;5072388;28;19970;-61
2023/04/08 12:38:17;;;;;;;13.82;9.50;;;7.90;99.90;;;;;;5069647;28;20043;-58
2023/04/08 12:40:42;;;;;;;;;;;7.80;99.90;;;;;;5071339;28;20111;-57
2023/04/08 12:43:08;;;;;;;21.02;10.02;;;7.80;99.90;;;;;;5071502;28;19916;-58